sensor_id;sensor_type;location;lat;lon;timestamp;pressure;altitude;pressure_sealevel;temperature;humidity
5284;BME280;15377;48.540;9.268;2022-09-09T00:00:01;97104.44;;;12.83;100.00
5284;BME280;15377;48.540;9.268;2022-09-09T00:02:28;97096.88;;;12.78;100.00
5284;BME280;15377;48.540;9.268;2022-09-09T00:07:52;97100.75;;;12.55;100.00
5284;BME280;15377;48.540;9.268;2022-09-09T00:13:20;97079.84;;;12.43;100.00
5284;BME280;15377;48.540;9.268;2022-09-09T00:16:00;97079.38;;;12.50;100.00
5284;BME280;15377;48.540;9.268;2022-09-09T00:18:49;97080.66;;;12.49;100.00
5284;BME280;15377;48.540;9.268;2022-09-09T00:21:17;97071.56;;;12.43;100.00
5284;BME280;15377;48.540;9.268;2022-09-09T00:23:51;97061.22;;;12.38;100.00
5284;BME280;15377;48.540;9.268;2022-09-09T00:26:38;97071.63;;;12.54;100.00
5284;BME280;15377;48.540;9.268;2022-09-09T00:31:36;97052.19;;;12.32;100.00
5284;BME280;15377;48.540;9.268;2022-09-09T00:34:14;97067.03;;;12.40;100.00
5284;BME280;15377;48.540;9.268;2022-09-09T00:36:41;97068.00;;;12.37;100.00
5284;BME280;15377;48.540;9.268;2022-09-09T00:39:15;97070.56;;;12.46;100.00
5284;BME280;15377;48.540;9.268;2022-09-09T00:44:36;97065.28;;;12.42;100.00
5284;BME280;15377;48.540;9.268;2022-09-09T00:53:03;97062.41;;;12.26;100.00
5284;BME280;15377;48.540;9.268;2022-09-09T00:58:21;97071.91;;;12.19;100.00
5284;BME280;15377;48.540;9.268;2022-09-09T01:01:10;97080.59;;;12.43;100.00
5284;BME280;15377;48.540;9.268;2022-09-09T01:06:32;97073.06;;;12.44;100.00
5284;BME280;15377;48.540;9.268;2022-09-09T01:09:17;97075.56;;;12.42;100.00
5284;BME280;15377;48.540;9.268;2022-09-09T01:11:55;97069.59;;;12.49;100.00
5284;BME280;15377;48.540;9.268;2022-09-09T01:14:38;97056.97;;;12.37;100.00
5284;BME280;15377;48.540;9.268;2022-09-09T01:17:27;97075.13;;;12.49;100.00
5284;BME280;15377;48.540;9.268;2022-09-09T01:20:23;97077.38;;;12.50;100.00
5284;BME280;15377;48.540;9.268;2022-09-09T01:26:15;97077.94;;;12.60;100.00
5284;BME280;15377;48.540;9.268;2022-09-09T01:28:46;97078.13;;;12.51;100.00
5284;BME280;15377;48.540;9.268;2022-09-09T01:31:17;97090.03;;;12.31;100.00
5284;BME280;15377;48.540;9.268;2022-09-09T01:33:43;97088.69;;;12.16;100.00
5284;BME280;15377;48.540;9.268;2022-09-09T01:36:14;97083.31;;;12.07;100.00
5284;BME280;15377;48.540;9.268;2022-09-09T01:38:42;97078.78;;;12.04;100.00
5284;BME280;15377;48.540;9.268;2022-09-09T01:41:08;97085.19;;;11.90;100.00
5284;BME280;15377;48.540;9.268;2022-09-09T01:43:33;97087.66;;;11.88;100.00
5284;BME280;15377;48.540;9.268;2022-09-09T01:46:00;97077.28;;;11.77;100.00
5284;BME280;15377;48.540;9.268;2022-09-09T01:48:27;97087.16;;;11.84;100.00
5284;BME280;15377;48.540;9.268;2022-09-09T01:50:53;97074.06;;;11.79;100.00
5284;BME280;15377;48.540;9.268;2022-09-09T01:53:20;97086.44;;;11.89;100.00
5284;BME280;15377;48.540;9.268;2022-09-09T01:56:02;97094.16;;;11.85;100.00
5284;BME280;15377;48.540;9.268;2022-09-09T02:01:28;97106.59;;;12.00;100.00
5284;BME280;15377;48.540;9.268;2022-09-09T02:03:59;97098.97;;;11.90;100.00
5284;BME280;15377;48.540;9.268;2022-09-09T02:06:36;97112.47;;;11.88;100.00
5284;BME280;15377;48.540;9.268;2022-09-09T02:09:05;97103.22;;;11.91;100.00
5284;BME280;15377;48.540;9.268;2022-09-09T02:11:31;97103.69;;;11.84;100.00
5284;BME280;15377;48.540;9.268;2022-09-09T02:14:04;97106.94;;;11.82;100.00
5284;BME280;15377;48.540;9.268;2022-09-09T02:16:37;97095.03;;;11.71;100.00
5284;BME280;15377;48.540;9.268;2022-09-09T02:19:08;97092.69;;;11.64;100.00
5284;BME280;15377;48.540;9.268;2022-09-09T02:21:38;97087.59;;;11.57;100.00
5284;BME280;15377;48.540;9.268;2022-09-09T02:24:06;97084.31;;;11.53;100.00
5284;BME280;15377;48.540;9.268;2022-09-09T02:26:38;97096.66;;;11.57;100.00
5284;BME280;15377;48.540;9.268;2022-09-09T02:29:09;97106.34;;;11.53;100.00
5284;BME280;15377;48.540;9.268;2022-09-09T02:31:38;97108.00;;;11.45;100.00
5284;BME280;15377;48.540;9.268;2022-09-09T02:34:05;97077.97;;;11.27;100.00
5284;BME280;15377;48.540;9.268;2022-09-09T02:36:36;97091.06;;;11.32;100.00
5284;BME280;15377;48.540;9.268;2022-09-09T02:39:07;97099.41;;;11.37;100.00
5284;BME280;15377;48.540;9.268;2022-09-09T02:41:34;97092.84;;;11.35;100.00
5284;BME280;15377;48.540;9.268;2022-09-09T02:44:00;97101.38;;;11.57;100.00
5284;BME280;15377;48.540;9.268;2022-09-09T02:49:03;97109.63;;;11.77;100.00
5284;BME280;15377;48.540;9.268;2022-09-09T02:52:11;97112.66;;;11.79;100.00
5284;BME280;15377;48.540;9.268;2022-09-09T02:54:35;97110.97;;;11.87;100.00
5284;BME280;15377;48.540;9.268;2022-09-09T02:57:13;97109.81;;;11.99;100.00
5284;BME280;15377;48.540;9.268;2022-09-09T02:59:39;97096.94;;;12.16;100.00
5284;BME280;15377;48.540;9.268;2022-09-09T03:02:05;97095.31;;;12.29;100.00
5284;BME280;15377;48.540;9.268;2022-09-09T03:04:30;97081.00;;;12.31;100.00
5284;BME280;15377;48.540;9.268;2022-09-09T03:06:57;97096.69;;;12.50;100.00
5284;BME280;15377;48.540;9.268;2022-09-09T03:09:22;97093.41;;;12.46;100.00
5284;BME280;15377;48.540;9.268;2022-09-09T03:11:48;97102.41;;;12.41;100.00
5284;BME280;15377;48.540;9.268;2022-09-09T03:14:15;97100.88;;;12.40;100.00
5284;BME280;15377;48.540;9.268;2022-09-09T03:16:40;97104.69;;;12.43;100.00
5284;BME280;15377;48.540;9.268;2022-09-09T03:19:07;97094.63;;;12.40;100.00
5284;BME280;15377;48.540;9.268;2022-09-09T03:21:32;97096.69;;;12.50;100.00
5284;BME280;15377;48.540;9.268;2022-09-09T03:23:58;97105.28;;;12.58;100.00
5284;BME280;15377;48.540;9.268;2022-09-09T03:26:23;97107.28;;;12.57;100.00
5284;BME280;15377;48.540;9.268;2022-09-09T03:28:49;97110.59;;;12.61;100.00
5284;BME280;15377;48.540;9.268;2022-09-09T03:31:17;97112.38;;;12.70;100.00
5284;BME280;15377;48.540;9.268;2022-09-09T03:33:44;97107.88;;;12.72;100.00
5284;BME280;15377;48.540;9.268;2022-09-09T03:36:09;97130.59;;;12.93;100.00
5284;BME280;15377;48.540;9.268;2022-09-09T03:38:35;97124.63;;;13.00;100.00
5284;BME280;15377;48.540;9.268;2022-09-09T03:41:01;97122.13;;;13.02;100.00
5284;BME280;15377;48.540;9.268;2022-09-09T03:43:28;97119.91;;;13.06;100.00
5284;BME280;15377;48.540;9.268;2022-09-09T03:45:54;97128.28;;;13.22;100.00
5284;BME280;15377;48.540;9.268;2022-09-09T03:48:22;97118.47;;;13.21;100.00
5284;BME280;15377;48.540;9.268;2022-09-09T03:50:53;97123.00;;;13.24;100.00
5284;BME280;15377;48.540;9.268;2022-09-09T03:53:20;97126.81;;;13.27;100.00
5284;BME280;15377;48.540;9.268;2022-09-09T03:55:51;97127.31;;;13.31;100.00
5284;BME280;15377;48.540;9.268;2022-09-09T03:58:20;97121.28;;;13.32;100.00
5284;BME280;15377;48.540;9.268;2022-09-09T04:01:13;97114.78;;;13.41;100.00
5284;BME280;15377;48.540;9.268;2022-09-09T04:03:40;97090.91;;;13.38;100.00
5284;BME280;15377;48.540;9.268;2022-09-09T04:06:07;97092.66;;;13.41;100.00
5284;BME280;15377;48.540;9.268;2022-09-09T04:08:33;97107.75;;;13.40;100.00
5284;BME280;15377;48.540;9.268;2022-09-09T04:10:59;97116.31;;;13.47;100.00
5284;BME280;15377;48.540;9.268;2022-09-09T04:13:27;97119.56;;;13.40;100.00
5284;BME280;15377;48.540;9.268;2022-09-09T04:15:55;97111.75;;;13.33;100.00
5284;BME280;15377;48.540;9.268;2022-09-09T04:18:21;97086.06;;;13.22;100.00
5284;BME280;15377;48.540;9.268;2022-09-09T04:20:48;97093.66;;;13.38;100.00
5284;BME280;15377;48.540;9.268;2022-09-09T04:23:14;97106.28;;;13.50;100.00
5284;BME280;15377;48.540;9.268;2022-09-09T04:25:51;97108.28;;;13.44;100.00
5284;BME280;15377;48.540;9.268;2022-09-09T04:28:18;97099.63;;;13.20;100.00
5284;BME280;15377;48.540;9.268;2022-09-09T04:30:44;97104.13;;;13.12;100.00
5284;BME280;15377;48.540;9.268;2022-09-09T04:33:10;97096.03;;;13.03;100.00
5284;BME280;15377;48.540;9.268;2022-09-09T04:35:36;97093.00;;;13.01;100.00
5284;BME280;15377;48.540;9.268;2022-09-09T04:38:03;97109.06;;;12.97;100.00
5284;BME280;15377;48.540;9.268;2022-09-09T04:40:30;97111.84;;;12.97;100.00
5284;BME280;15377;48.540;9.268;2022-09-09T04:43:00;97106.94;;;12.81;100.00
5284;BME280;15377;48.540;9.268;2022-09-09T04:45:26;97108.72;;;12.89;100.00
5284;BME280;15377;48.540;9.268;2022-09-09T04:47:52;97099.16;;;12.79;100.00
5284;BME280;15377;48.540;9.268;2022-09-09T04:50:18;97107.69;;;12.81;100.00
5284;BME280;15377;48.540;9.268;2022-09-09T04:52:44;97106.75;;;12.90;100.00
5284;BME280;15377;48.540;9.268;2022-09-09T04:55:09;97102.78;;;12.96;100.00
5284;BME280;15377;48.540;9.268;2022-09-09T04:57:34;97099.75;;;12.94;100.00
5284;BME280;15377;48.540;9.268;2022-09-09T05:00:00;97092.88;;;12.79;100.00
5284;BME280;15377;48.540;9.268;2022-09-09T05:02:27;97113.50;;;12.89;100.00
5284;BME280;15377;48.540;9.268;2022-09-09T05:04:52;97104.75;;;12.90;100.00
5284;BME280;15377;48.540;9.268;2022-09-09T05:07:17;97111.47;;;12.84;100.00
5284;BME280;15377;48.540;9.268;2022-09-09T05:09:44;97092.78;;;12.68;100.00
5284;BME280;15377;48.540;9.268;2022-09-09T05:12:10;97109.63;;;12.70;100.00
5284;BME280;15377;48.540;9.268;2022-09-09T05:14:36;97107.41;;;12.74;100.00
5284;BME280;15377;48.540;9.268;2022-09-09T05:17:03;97097.41;;;12.82;100.00
5284;BME280;15377;48.540;9.268;2022-09-09T05:19:28;97092.66;;;12.82;100.00
5284;BME280;15377;48.540;9.268;2022-09-09T05:21:55;97089.16;;;12.93;100.00
5284;BME280;15377;48.540;9.268;2022-09-09T05:24:21;97111.66;;;13.17;100.00
5284;BME280;15377;48.540;9.268;2022-09-09T05:26:48;97120.81;;;13.34;100.00
5284;BME280;15377;48.540;9.268;2022-09-09T05:29:13;97117.81;;;13.43;100.00
5284;BME280;15377;48.540;9.268;2022-09-09T05:31:39;97122.59;;;13.48;100.00
5284;BME280;15377;48.540;9.268;2022-09-09T05:34:04;97118.31;;;13.47;100.00
5284;BME280;15377;48.540;9.268;2022-09-09T05:36:29;97122.88;;;13.55;100.00
5284;BME280;15377;48.540;9.268;2022-09-09T05:38:55;97122.91;;;13.61;100.00
5284;BME280;15377;48.540;9.268;2022-09-09T05:41:20;97120.44;;;13.74;100.00
5284;BME280;15377;48.540;9.268;2022-09-09T05:43:48;97129.00;;;13.87;100.00
5284;BME280;15377;48.540;9.268;2022-09-09T05:46:19;97140.34;;;14.00;100.00
5284;BME280;15377;48.540;9.268;2022-09-09T05:48:45;97142.88;;;14.09;100.00
5284;BME280;15377;48.540;9.268;2022-09-09T05:51:13;97141.13;;;14.17;100.00
5284;BME280;15377;48.540;9.268;2022-09-09T05:53:43;97142.94;;;14.25;100.00
5284;BME280;15377;48.540;9.268;2022-09-09T05:56:10;97144.69;;;14.34;100.00
5284;BME280;15377;48.540;9.268;2022-09-09T05:58:36;97116.50;;;14.30;100.00
5284;BME280;15377;48.540;9.268;2022-09-09T06:01:10;97144.94;;;14.52;100.00
5284;BME280;15377;48.540;9.268;2022-09-09T06:03:39;97141.16;;;14.61;100.00
5284;BME280;15377;48.540;9.268;2022-09-09T06:06:11;97139.91;;;14.67;100.00
5284;BME280;15377;48.540;9.268;2022-09-09T06:08:39;97143.91;;;14.82;100.00
5284;BME280;15377;48.540;9.268;2022-09-09T06:11:06;97140.84;;;15.02;100.00
5284;BME280;15377;48.540;9.268;2022-09-09T06:13:31;97145.06;;;15.25;100.00
5284;BME280;15377;48.540;9.268;2022-09-09T06:15:58;97133.47;;;15.38;100.00
5284;BME280;15377;48.540;9.268;2022-09-09T06:18:24;97133.66;;;15.51;100.00
5284;BME280;15377;48.540;9.268;2022-09-09T06:21:01;97142.16;;;15.69;100.00
5284;BME280;15377;48.540;9.268;2022-09-09T06:23:30;97133.84;;;15.69;100.00
5284;BME280;15377;48.540;9.268;2022-09-09T06:26:09;97137.75;;;15.90;100.00
5284;BME280;15377;48.540;9.268;2022-09-09T06:28:36;97151.00;;;16.08;100.00
5284;BME280;15377;48.540;9.268;2022-09-09T06:31:07;97151.19;;;16.21;100.00
5284;BME280;15377;48.540;9.268;2022-09-09T06:33:34;97156.19;;;16.28;100.00
5284;BME280;15377;48.540;9.268;2022-09-09T06:36:00;97162.22;;;16.32;100.00
5284;BME280;15377;48.540;9.268;2022-09-09T06:38:25;97157.91;;;16.31;100.00
5284;BME280;15377;48.540;9.268;2022-09-09T06:40:52;97139.34;;;16.15;100.00
5284;BME280;15377;48.540;9.268;2022-09-09T06:43:19;97169.22;;;16.44;100.00
5284;BME280;15377;48.540;9.268;2022-09-09T06:45:56;97170.84;;;16.64;100.00
5284;BME280;15377;48.540;9.268;2022-09-09T06:48:21;97165.16;;;16.80;100.00
5284;BME280;15377;48.540;9.268;2022-09-09T06:50:47;97176.03;;;17.08;100.00
5284;BME280;15377;48.540;9.268;2022-09-09T06:53:17;97166.75;;;17.24;100.00
5284;BME280;15377;48.540;9.268;2022-09-09T06:55:44;97178.00;;;17.37;100.00
5284;BME280;15377;48.540;9.268;2022-09-09T06:58:10;97168.34;;;17.43;100.00
5284;BME280;15377;48.540;9.268;2022-09-09T07:00:35;97161.13;;;17.53;100.00
5284;BME280;15377;48.540;9.268;2022-09-09T07:03:04;97181.03;;;17.81;100.00
5284;BME280;15377;48.540;9.268;2022-09-09T07:05:29;97183.97;;;17.89;100.00
5284;BME280;15377;48.540;9.268;2022-09-09T07:07:55;97174.72;;;17.99;100.00
5284;BME280;15377;48.540;9.268;2022-09-09T07:10:20;97174.13;;;18.06;100.00
5284;BME280;15377;48.540;9.268;2022-09-09T07:12:50;97185.72;;;18.10;100.00
5284;BME280;15377;48.540;9.268;2022-09-09T07:15:16;97176.00;;;18.17;100.00
5284;BME280;15377;48.540;9.268;2022-09-09T07:17:43;97170.22;;;18.33;100.00
5284;BME280;15377;48.540;9.268;2022-09-09T07:20:09;97179.75;;;18.56;100.00
5284;BME280;15377;48.540;9.268;2022-09-09T07:22:34;97188.50;;;18.78;100.00
5284;BME280;15377;48.540;9.268;2022-09-09T07:25:00;97185.56;;;19.02;100.00
5284;BME280;15377;48.540;9.268;2022-09-09T07:27:27;97180.06;;;19.28;100.00
5284;BME280;15377;48.540;9.268;2022-09-09T07:29:52;97180.63;;;19.40;100.00
5284;BME280;15377;48.540;9.268;2022-09-09T07:32:19;97177.28;;;19.41;100.00
5284;BME280;15377;48.540;9.268;2022-09-09T07:34:45;97179.94;;;19.47;100.00
5284;BME280;15377;48.540;9.268;2022-09-09T07:37:12;97181.69;;;19.63;100.00
5284;BME280;15377;48.540;9.268;2022-09-09T07:39:39;97194.13;;;19.75;100.00
5284;BME280;15377;48.540;9.268;2022-09-09T07:42:05;97180.41;;;19.51;100.00
5284;BME280;15377;48.540;9.268;2022-09-09T07:44:30;97206.16;;;19.44;100.00
5284;BME280;15377;48.540;9.268;2022-09-09T07:47:00;97215.84;;;19.56;100.00
5284;BME280;15377;48.540;9.268;2022-09-09T07:49:25;97221.63;;;19.71;100.00
5284;BME280;15377;48.540;9.268;2022-09-09T07:51:50;97216.47;;;19.75;100.00
5284;BME280;15377;48.540;9.268;2022-09-09T07:54:17;97216.03;;;19.84;100.00
5284;BME280;15377;48.540;9.268;2022-09-09T07:56:46;97218.09;;;19.70;100.00
5284;BME280;15377;48.540;9.268;2022-09-09T07:59:12;97207.88;;;19.60;100.00
5284;BME280;15377;48.540;9.268;2022-09-09T08:01:44;97216.78;;;19.71;100.00
5284;BME280;15377;48.540;9.268;2022-09-09T08:04:12;97216.47;;;19.88;100.00
5284;BME280;15377;48.540;9.268;2022-09-09T08:06:44;97226.66;;;20.11;100.00
5284;BME280;15377;48.540;9.268;2022-09-09T08:09:12;97229.47;;;20.11;100.00
5284;BME280;15377;48.540;9.268;2022-09-09T08:11:39;97222.25;;;20.03;100.00
5284;BME280;15377;48.540;9.268;2022-09-09T08:14:06;97233.66;;;20.05;100.00
5284;BME280;15377;48.540;9.268;2022-09-09T08:16:34;97234.81;;;19.96;100.00
5284;BME280;15377;48.540;9.268;2022-09-09T08:19:03;97236.00;;;20.01;100.00
5284;BME280;15377;48.540;9.268;2022-09-09T08:21:30;97237.13;;;20.11;100.00
5284;BME280;15377;48.540;9.268;2022-09-09T08:23:59;97236.22;;;20.29;100.00
5284;BME280;15377;48.540;9.268;2022-09-09T08:26:30;97225.22;;;20.44;100.00
5284;BME280;15377;48.540;9.268;2022-09-09T08:28:57;97239.81;;;20.50;100.00
5284;BME280;15377;48.540;9.268;2022-09-09T08:31:26;97233.41;;;20.42;100.00
5284;BME280;15377;48.540;9.268;2022-09-09T08:33:54;97240.47;;;20.43;100.00
5284;BME280;15377;48.540;9.268;2022-09-09T08:36:21;97249.09;;;20.32;100.00
5284;BME280;15377;48.540;9.268;2022-09-09T08:38:52;97247.59;;;20.31;100.00
5284;BME280;15377;48.540;9.268;2022-09-09T08:57:44;97240.25;;;21.08;100.00
5284;BME280;15377;48.540;9.268;2022-09-09T09:00:11;97236.03;;;21.63;100.00
5284;BME280;15377;48.540;9.268;2022-09-09T09:05:35;97247.84;;;21.97;100.00
5284;BME280;15377;48.540;9.268;2022-09-09T09:08:12;97232.09;;;21.86;100.00
5284;BME280;15377;48.540;9.268;2022-09-09T09:10:50;97243.81;;;22.13;100.00
5284;BME280;15377;48.540;9.268;2022-09-09T09:13:23;97241.25;;;22.58;100.00
5284;BME280;15377;48.540;9.268;2022-09-09T09:15:55;97249.16;;;22.74;100.00
5284;BME280;15377;48.540;9.268;2022-09-09T09:18:22;97242.69;;;23.02;100.00
5284;BME280;15377;48.540;9.268;2022-09-09T09:20:52;97232.66;;;22.63;100.00
5284;BME280;15377;48.540;9.268;2022-09-09T09:23:23;97242.03;;;22.73;100.00
5284;BME280;15377;48.540;9.268;2022-09-09T09:25:52;97231.03;;;22.83;100.00
5284;BME280;15377;48.540;9.268;2022-09-09T09:28:23;97233.34;;;23.51;100.00
5284;BME280;15377;48.540;9.268;2022-09-09T09:30:59;97224.88;;;24.51;100.00
5284;BME280;15377;48.540;9.268;2022-09-09T09:33:49;97234.22;;;24.61;93.87
5284;BME280;15377;48.540;9.268;2022-09-09T09:36:15;97238.13;;;24.73;93.01
5284;BME280;15377;48.540;9.268;2022-09-09T09:38:58;97225.81;;;25.83;87.44
5284;BME280;15377;48.540;9.268;2022-09-09T09:41:40;97225.72;;;26.32;84.63
5284;BME280;15377;48.540;9.268;2022-09-09T09:44:22;97216.91;;;27.15;77.37
5284;BME280;15377;48.540;9.268;2022-09-09T09:46:48;97223.09;;;27.40;75.24
5284;BME280;15377;48.540;9.268;2022-09-09T09:49:13;97222.22;;;28.30;73.85
5284;BME280;15377;48.540;9.268;2022-09-09T09:51:39;97226.25;;;29.34;67.48
5284;BME280;15377;48.540;9.268;2022-09-09T09:54:13;97202.69;;;29.62;60.00
5284;BME280;15377;48.540;9.268;2022-09-09T09:56:44;97217.13;;;30.38;57.68
5284;BME280;15377;48.540;9.268;2022-09-09T09:59:21;97212.34;;;30.52;56.55
5284;BME280;15377;48.540;9.268;2022-09-09T10:01:47;97210.97;;;29.79;54.81
5284;BME280;15377;48.540;9.268;2022-09-09T10:04:21;97204.06;;;29.21;54.93
5284;BME280;15377;48.540;9.268;2022-09-09T10:06:49;97204.25;;;29.44;56.18
5284;BME280;15377;48.540;9.268;2022-09-09T10:09:23;97200.75;;;28.94;53.77
5284;BME280;15377;48.540;9.268;2022-09-09T10:14:54;97205.25;;;27.83;56.16
5284;BME280;15377;48.540;9.268;2022-09-09T10:20:38;97202.09;;;27.79;57.47
5284;BME280;15377;48.540;9.268;2022-09-09T10:29:02;97186.16;;;29.58;58.45
5284;BME280;15377;48.540;9.268;2022-09-09T10:34:46;97173.47;;;30.22;49.00
5284;BME280;15377;48.540;9.268;2022-09-09T10:37:39;97175.53;;;30.43;49.92
5284;BME280;15377;48.540;9.268;2022-09-09T10:42:36;97192.47;;;30.85;48.30
5284;BME280;15377;48.540;9.268;2022-09-09T10:45:20;97181.22;;;29.28;47.65
5284;BME280;15377;48.540;9.268;2022-09-09T10:48:10;97178.97;;;28.77;48.52
5284;BME280;15377;48.540;9.268;2022-09-09T10:50:56;97182.97;;;29.03;50.47
5284;BME280;15377;48.540;9.268;2022-09-09T10:56:20;97182.16;;;29.12;45.57
5284;BME280;15377;48.540;9.268;2022-09-09T11:03:48;97159.81;;;29.37;43.21
5284;BME280;15377;48.540;9.268;2022-09-09T11:06:19;97166.66;;;29.95;44.42
5284;BME280;15377;48.540;9.268;2022-09-09T11:08:46;97163.66;;;29.93;42.25
5284;BME280;15377;48.540;9.268;2022-09-09T11:11:19;97145.09;;;28.89;45.08
5284;BME280;15377;48.540;9.268;2022-09-09T11:13:57;97159.25;;;27.92;47.57
5284;BME280;15377;48.540;9.268;2022-09-09T11:16:41;97150.28;;;27.22;51.14
5284;BME280;15377;48.540;9.268;2022-09-09T11:19:29;97154.78;;;26.45;51.71
5284;BME280;15377;48.540;9.268;2022-09-09T11:21:55;97171.47;;;25.90;52.06
5284;BME280;15377;48.540;9.268;2022-09-09T11:24:35;97157.59;;;25.26;55.20
5284;BME280;15377;48.540;9.268;2022-09-09T11:27:10;97164.50;;;25.08;57.22
5284;BME280;15377;48.540;9.268;2022-09-09T11:38:25;97204.78;;;22.58;76.90
5284;BME280;15377;48.540;9.268;2022-09-09T11:41:05;97204.38;;;21.68;89.09
5284;BME280;15377;48.540;9.268;2022-09-09T11:43:41;97195.81;;;21.25;90.50
5284;BME280;15377;48.540;9.268;2022-09-09T11:46:07;97226.25;;;21.08;93.13
5284;BME280;15377;48.540;9.268;2022-09-09T11:48:37;97221.78;;;21.05;95.18
5284;BME280;15377;48.540;9.268;2022-09-09T11:51:10;97214.50;;;21.30;95.96
5284;BME280;15377;48.540;9.268;2022-09-09T11:54:27;97219.47;;;21.44;97.99
5284;BME280;15377;48.540;9.268;2022-09-09T11:56:54;97208.09;;;21.22;94.71
5284;BME280;15377;48.540;9.268;2022-09-09T11:59:22;97204.84;;;21.38;95.68
5284;BME280;15377;48.540;9.268;2022-09-09T12:02:17;97234.22;;;21.65;92.61
5284;BME280;15377;48.540;9.268;2022-09-09T12:04:57;97225.13;;;21.52;89.06
5284;BME280;15377;48.540;9.268;2022-09-09T12:07:38;97212.25;;;21.28;90.68
5284;BME280;15377;48.540;9.268;2022-09-09T12:10:29;97217.81;;;21.21;85.85
5284;BME280;15377;48.540;9.268;2022-09-09T12:13:08;97214.31;;;21.07;86.86
5284;BME280;15377;48.540;9.268;2022-09-09T12:15:53;97212.06;;;21.06;85.74
5284;BME280;15377;48.540;9.268;2022-09-09T12:21:19;97208.91;;;21.30;88.24
5284;BME280;15377;48.540;9.268;2022-09-09T12:24:03;97172.22;;;21.13;85.36
5284;BME280;15377;48.540;9.268;2022-09-09T12:26:34;97203.38;;;21.37;87.54
5284;BME280;15377;48.540;9.268;2022-09-09T12:39:55;97186.75;;;21.60;84.55
5284;BME280;15377;48.540;9.268;2022-09-09T12:42:22;97182.81;;;21.63;86.48
5284;BME280;15377;48.540;9.268;2022-09-09T12:45:02;97186.13;;;21.82;85.40
5284;BME280;15377;48.540;9.268;2022-09-09T12:50:24;97158.34;;;21.63;86.39
5284;BME280;15377;48.540;9.268;2022-09-09T12:53:02;97179.84;;;21.61;86.70
5284;BME280;15377;48.540;9.268;2022-09-09T12:55:31;97160.13;;;21.46;89.64
5284;BME280;15377;48.540;9.268;2022-09-09T12:57:59;97178.13;;;21.58;89.06
5284;BME280;15377;48.540;9.268;2022-09-09T13:00:26;97191.53;;;21.80;87.38
5284;BME280;15377;48.540;9.268;2022-09-09T13:02:56;97189.25;;;21.71;87.39
5284;BME280;15377;48.540;9.268;2022-09-09T13:05:26;97183.13;;;21.80;84.80
5284;BME280;15377;48.540;9.268;2022-09-09T13:08:00;97175.31;;;21.86;86.06
5284;BME280;15377;48.540;9.268;2022-09-09T13:10:29;97176.13;;;21.94;85.26
5284;BME280;15377;48.540;9.268;2022-09-09T13:12:57;97174.69;;;22.08;80.35
5284;BME280;15377;48.540;9.268;2022-09-09T13:15:24;97174.88;;;22.10;76.69
5284;BME280;15377;48.540;9.268;2022-09-09T13:17:58;97171.72;;;22.21;76.94
5284;BME280;15377;48.540;9.268;2022-09-09T13:20:26;97185.28;;;22.45;77.11
5284;BME280;15377;48.540;9.268;2022-09-09T13:22:53;97182.31;;;22.43;74.69
5284;BME280;15377;48.540;9.268;2022-09-09T13:25:25;97174.41;;;22.34;79.24
5284;BME280;15377;48.540;9.268;2022-09-09T13:27:57;97164.16;;;22.44;76.48
5284;BME280;15377;48.540;9.268;2022-09-09T13:35:30;97160.25;;;21.96;77.45
5284;BME280;15377;48.540;9.268;2022-09-09T13:37:55;97152.06;;;21.70;79.08
5284;BME280;15377;48.540;9.268;2022-09-09T13:40:22;97165.16;;;21.68;80.16
5284;BME280;15377;48.540;9.268;2022-09-09T13:42:51;97155.13;;;21.52;80.67
5284;BME280;15377;48.540;9.268;2022-09-09T13:45:20;97151.22;;;21.55;80.61
5284;BME280;15377;48.540;9.268;2022-09-09T13:47:46;97155.72;;;21.58;81.77
5284;BME280;15377;48.540;9.268;2022-09-09T13:50:27;97149.75;;;21.61;84.31
5284;BME280;15377;48.540;9.268;2022-09-09T13:52:55;97157.81;;;21.65;82.30
5284;BME280;15377;48.540;9.268;2022-09-09T13:55:24;97148.78;;;21.51;83.79
5284;BME280;15377;48.540;9.268;2022-09-09T13:57:52;97159.03;;;21.49;84.81
5284;BME280;15377;48.540;9.268;2022-09-09T14:00:18;97152.28;;;21.44;85.77
5284;BME280;15377;48.540;9.268;2022-09-09T14:02:43;97145.53;;;21.40;86.67
5284;BME280;15377;48.540;9.268;2022-09-09T14:05:09;97141.44;;;21.41;85.87
5284;BME280;15377;48.540;9.268;2022-09-09T14:07:36;97133.19;;;21.35;88.17
5284;BME280;15377;48.540;9.268;2022-09-09T14:10:04;97136.44;;;21.47;87.11
5284;BME280;15377;48.540;9.268;2022-09-09T14:12:29;97121.28;;;21.42;85.40
5284;BME280;15377;48.540;9.268;2022-09-09T14:14:54;97145.81;;;21.57;84.23
5284;BME280;15377;48.540;9.268;2022-09-09T14:17:20;97119.09;;;21.48;85.26
5284;BME280;15377;48.540;9.268;2022-09-09T14:19:46;97121.13;;;21.48;82.97
5284;BME280;15377;48.540;9.268;2022-09-09T14:22:11;97129.63;;;21.63;83.52
5284;BME280;15377;48.540;9.268;2022-09-09T14:24:37;97122.50;;;21.62;81.81
5284;BME280;15377;48.540;9.268;2022-09-09T14:27:02;97139.06;;;21.80;79.82
5284;BME280;15377;48.540;9.268;2022-09-09T14:29:27;97148.09;;;21.94;82.18
5284;BME280;15377;48.540;9.268;2022-09-09T14:31:53;97141.38;;;21.97;80.04
5284;BME280;15377;48.540;9.268;2022-09-09T14:34:18;97122.13;;;21.93;81.99
5284;BME280;15377;48.540;9.268;2022-09-09T14:36:44;97140.28;;;22.00;80.03
5284;BME280;15377;48.540;9.268;2022-09-09T14:39:10;97151.50;;;22.07;80.39
5284;BME280;15377;48.540;9.268;2022-09-09T14:41:35;97141.72;;;21.93;79.94
5284;BME280;15377;48.540;9.268;2022-09-09T14:44:01;97140.13;;;21.70;81.00
5284;BME280;15377;48.540;9.268;2022-09-09T14:46:26;97144.91;;;21.62;80.09
5284;BME280;15377;48.540;9.268;2022-09-09T14:48:52;97087.28;;;21.38;77.35
5284;BME280;15377;48.540;9.268;2022-09-09T14:51:22;97145.09;;;21.92;76.38
5284;BME280;15377;48.540;9.268;2022-09-09T14:53:54;97138.63;;;22.04;75.32
5284;BME280;15377;48.540;9.268;2022-09-09T14:56:22;97142.94;;;22.13;77.95
5284;BME280;15377;48.540;9.268;2022-09-09T14:58:49;97131.34;;;22.09;76.11
5284;BME280;15377;48.540;9.268;2022-09-09T15:01:17;97144.03;;;22.10;74.83
5284;BME280;15377;48.540;9.268;2022-09-09T15:03:52;97132.44;;;22.06;79.39
5284;BME280;15377;48.540;9.268;2022-09-09T15:06:19;97145.94;;;22.15;78.34